createdAt,value
2019-05-07T00:00:44.971Z,85.717773
2019-05-07T00:01:44.192Z,85.571289
2019-05-07T00:02:43.528Z,85.15625
2019-05-07T00:02:55.382Z,85.15625
2019-05-07T00:03:54.647Z,84.70459
2019-05-07T00:04:53.972Z,84.393311
2019-05-07T00:06:05.074Z,84.04541
2019-05-07T00:06:53.474Z,83.837891
2019-05-07T00:07:05.318Z,83.837891
2019-05-07T00:08:04.583Z,83.526611
2019-05-07T00:09:03.827Z,83.111572
2019-05-07T00:10:15.004Z,83.068848
2019-05-07T00:11:03.391Z,82.861328
2019-05-07T00:11:15.241Z,82.861328
2019-05-07T00:12:14.517Z,82.861328
2019-05-07T00:13:13.748Z,82.653809
2019-05-07T00:14:24.960Z,82.550049
2019-05-07T00:15:13.356Z,82.342529
2019-05-07T00:15:25.191Z,82.342529
2019-05-07T00:16:24.428Z,82.03125
2019-05-07T00:17:23.682Z,81.243896
2019-05-07T00:18:34.839Z,80.413818
2019-05-07T00:19:34.169Z,80.969238
2019-05-07T00:20:33.396Z,81.591797
2019-05-07T00:20:45.245Z,81.695557
2019-05-07T00:21:33.671Z,82.318115
2019-05-07T00:22:44.767Z,83.319092
2019-05-07T00:23:44.030Z,83.630371
2019-05-07T00:24:43.322Z,83.526611
2019-05-07T00:24:55.180Z,83.526611
2019-05-07T00:25:54.450Z,83.422852
2019-05-07T00:26:53.742Z,83.422852
2019-05-07T00:28:04.866Z,83.422852
2019-05-07T00:29:05.099Z,83.526611
2019-05-07T00:30:04.443Z,83.734131
2019-05-07T00:31:03.728Z,83.837891
2019-05-07T00:32:14.789Z,83.94165
2019-05-07T00:33:14.008Z,83.94165
2019-05-07T00:34:25.118Z,83.837891
2019-05-07T00:35:24.437Z,83.734131
2019-05-07T00:36:24.650Z,83.630371
2019-05-07T00:37:24.028Z,83.837891
2019-05-07T00:38:23.312Z,83.734131
2019-05-07T00:38:35.171Z,83.734131
2019-05-07T00:39:34.943Z,83.526611
2019-05-07T00:40:34.674Z,83.630371
2019-05-07T00:41:34.025Z,83.587646
2019-05-07T00:42:33.393Z,83.587646
2019-05-07T00:42:45.245Z,83.587646
2019-05-07T00:43:44.648Z,83.587646
2019-05-07T00:44:44.224Z,83.587646
2019-05-07T00:45:44.527Z,83.276367
2019-05-07T00:46:43.930Z,83.068848
2019-05-07T00:47:55.146Z,82.965088
2019-05-07T00:48:55.254Z,83.032227
2019-05-07T00:49:54.590Z,82.446289
2019-05-07T00:50:53.918Z,81.201172
2019-05-07T00:52:05.191Z,80.310059
2019-05-07T00:52:54.723Z,80.102539
2019-05-07T00:53:54.354Z,80.310059
2019-05-07T00:54:53.609Z,79.79126
2019-05-07T00:55:53.543Z,79.095459
2019-05-07T00:56:55.459Z,78.57666
2019-05-07T00:57:44.373Z,78.717041
2019-05-07T00:58:43.610Z,79.064941
2019-05-07T00:59:44.346Z,79.376221
2019-05-07T01:00:33.989Z,80.145264
2019-05-07T01:01:23.466Z,80.285645
2019-05-07T01:02:24.199Z,80.493164
2019-05-07T01:03:25.066Z,80.700684
2019-05-07T01:04:24.379Z,80.841064
2019-05-07T01:05:23.793Z,81.671143
2019-05-07T01:06:34.973Z,82.611084
2019-05-07T01:07:34.366Z,82.922363
2019-05-07T01:08:33.738Z,83.337402
2019-05-07T01:09:45.040Z,83.648682
2019-05-07T01:10:44.449Z,83.752441
2019-05-07T01:11:43.807Z,83.959961
2019-05-07T01:12:55.095Z,84.16748
2019-05-07T01:13:54.422Z,84.649658
2019-05-07T01:14:53.820Z,85.693359
2019-05-07T01:15:54.374Z,85.961914
2019-05-07T01:16:53.725Z,86.376953
2019-05-07T01:18:04.928Z,86.236572
2019-05-07T01:19:04.297Z,85.717773
2019-05-07T01:20:04.678Z,85.614014
2019-05-07T01:21:04.975Z,85.406494
2019-05-07T01:22:04.284Z,85.095215
2019-05-07T01:23:03.500Z,85.302734
2019-05-07T01:23:15.400Z,85.302734
2019-05-07T01:24:14.683Z,84.509277
2019-05-07T01:25:14.101Z,83.81958
2019-05-07T01:26:13.793Z,84.0271
2019-05-07T01:27:25.190Z,85.003662
2019-05-07T01:28:24.611Z,85.522461
2019-05-07T01:29:24.091Z,86.14502
2019-05-07T01:30:23.437Z,86.352539
2019-05-07T01:30:35.324Z,86.352539
2019-05-07T01:31:34.723Z,86.669922
2019-05-07T01:32:34.684Z,86.773682
2019-05-07T01:33:34.054Z,86.773682
2019-05-07T01:34:33.587Z,86.834717
2019-05-07T01:34:45.422Z,86.834717
2019-05-07T01:35:45.063Z,86.834717
2019-05-07T01:36:44.423Z,86.627197
2019-05-07T01:37:44.077Z,84.899902
2019-05-07T01:38:43.465Z,84.039307
2019-05-07T01:38:55.381Z,84.246826
2019-05-07T01:39:54.787Z,85.36377
2019-05-07T01:40:54.238Z,86.242676
2019-05-07T01:41:53.730Z,86.590576
2019-05-07T01:42:53.427Z,87.738037
2019-05-07T01:43:05.264Z,88.05542
2019-05-07T01:44:04.759Z,88.470459
2019-05-07T01:45:04.248Z,88.989258
2019-05-07T01:46:03.624Z,89.678955
2019-05-07T01:47:15.241Z,88.885498
2019-05-07T01:48:04.396Z,88.574219
2019-05-07T01:49:03.317Z,88.262939
2019-05-07T01:49:15.279Z,88.262939
2019-05-07T01:51:15.153Z,89.056396
2019-05-07T01:52:14.928Z,89.263916
2019-05-07T01:53:14.488Z,89.013672
2019-05-07T01:54:13.779Z,88.287354
2019-05-07T01:55:25.186Z,87.347412
2019-05-07T01:56:24.726Z,86.303711
2019-05-07T01:57:24.104Z,85.681152
2019-05-07T01:58:23.537Z,85.784912
2019-05-07T01:59:34.973Z,86.51123
2019-05-07T02:00:23.550Z,86.828613
2019-05-07T02:00:35.419Z,86.889648
2019-05-07T02:01:35.815Z,87.097168
2019-05-07T02:02:34.172Z,86.993408
2019-05-07T02:03:33.721Z,87.200928
2019-05-07T02:04:45.068Z,86.993408
2019-05-07T02:05:44.520Z,86.682129
2019-05-07T02:06:44.121Z,86.26709
2019-05-07T02:07:43.583Z,85.955811
2019-05-07T02:07:55.436Z,86.05957
2019-05-07T02:08:54.881Z,86.05957
2019-05-07T02:09:54.145Z,85.955811
2019-05-07T02:10:53.421Z,86.16333
2019-05-07T02:11:05.260Z,86.16333
2019-05-07T02:12:04.522Z,86.16333
2019-05-07T02:13:03.785Z,86.26709
2019-05-07T02:14:14.994Z,86.37085
2019-05-07T02:15:14.267Z,86.26709
2019-05-07T02:16:13.536Z,86.37085
2019-05-07T02:16:25.383Z,86.37085
2019-05-07T02:17:24.611Z,86.889648
2019-05-07T02:18:23.933Z,87.304688
2019-05-07T02:19:23.338Z,87.518311
2019-05-07T02:19:35.182Z,87.518311
2019-05-07T02:20:23.584Z,87.62207
2019-05-07T02:20:35.429Z,87.62207
2019-05-07T02:21:34.697Z,87.82959
2019-05-07T02:22:33.946Z,87.304688
2019-05-07T02:23:45.074Z,86.993408
2019-05-07T02:24:44.358Z,86.785889
2019-05-07T02:25:43.663Z,85.845947
2019-05-07T02:26:54.793Z,85.26001
2019-05-07T02:27:54.092Z,85.26001
2019-05-07T02:28:53.334Z,85.510254
2019-05-07T02:29:05.210Z,85.614014
2019-05-07T02:30:04.715Z,85.821533
2019-05-07T02:31:04.153Z,85.925293
2019-05-07T02:32:14.842Z,86.029053
2019-05-07T02:33:14.182Z,85.760498
2019-05-07T02:34:14.018Z,85.443115
2019-05-07T02:34:25.391Z,85.443115
2019-05-07T02:35:24.610Z,86.071777
2019-05-07T02:36:24.104Z,87.493896
2019-05-07T02:37:46.815Z,88.745117
2019-05-07T02:38:23.347Z,89.221191
2019-05-07T02:38:35.188Z,89.221191
2019-05-07T02:39:24.172Z,89.324951
2019-05-07T02:40:34.789Z,89.221191
2019-05-07T02:41:34.033Z,89.117432
2019-05-07T02:42:45.125Z,88.806152
2019-05-07T02:43:44.385Z,88.806152
2019-05-07T02:44:43.955Z,88.909912
2019-05-07T02:45:54.860Z,89.013672
2019-05-07T02:46:55.069Z,89.221191
2019-05-07T02:47:54.349Z,89.434814
2019-05-07T02:48:53.835Z,89.642334
2019-05-07T02:50:04.737Z,89.703369
2019-05-07T02:51:04.299Z,90.222168
2019-05-07T02:52:15.142Z,90.325928
2019-05-07T02:53:17.440Z,90.325928
2019-05-07T02:54:13.662Z,90.118408
2019-05-07T02:55:24.733Z,89.910889
2019-05-07T02:56:24.086Z,89.599609
2019-05-07T02:57:23.945Z,89.49585
2019-05-07T02:57:35.193Z,89.49585
2019-05-07T02:58:34.423Z,89.49585
2019-05-07T02:59:33.931Z,89.39209
2019-05-07T03:00:44.868Z,89.39209
2019-05-07T03:01:44.224Z,88.867188
2019-05-07T03:02:43.795Z,88.183594
2019-05-07T03:02:55.335Z,87.866211
2019-05-07T03:03:54.595Z,86.553955
2019-05-07T03:04:43.942Z,85.546875
2019-05-07T03:05:44.236Z,85.522461
2019-05-07T03:06:44.158Z,85.913086
2019-05-07T03:07:54.685Z,86.16333
2019-05-07T03:08:53.944Z,86.621094
2019-05-07T03:10:05.061Z,87.768555
2019-05-07T03:11:04.324Z,89.129639
2019-05-07T03:12:04.054Z,90.179443
2019-05-07T03:13:14.765Z,91.015625
2019-05-07T03:14:14.348Z,91.497803
2019-05-07T03:15:25.047Z,92.016602
2019-05-07T03:16:37.864Z,92.39502
2019-05-07T03:17:24.926Z,92.663574
2019-05-07T03:18:23.859Z,92.834473
2019-05-07T03:19:34.924Z,92.999268
2019-05-07T03:20:34.220Z,92.895508
2019-05-07T03:21:33.442Z,92.541504
2019-05-07T03:21:45.286Z,92.437744
2019-05-07T03:22:34.027Z,91.912842
2019-05-07T03:23:44.816Z,91.18042
2019-05-07T03:24:44.077Z,91.143799
2019-05-07T03:25:43.349Z,90.826416
2019-05-07T03:25:55.182Z,90.618896
2019-05-07T03:26:54.453Z,89.575195
2019-05-07T03:27:53.812Z,89.324951
2019-05-07T03:29:04.864Z,89.538574
2019-05-07T03:30:05.076Z,89.849854
2019-05-07T03:30:56.600Z,89.642334
2019-05-07T03:31:06.247Z,89.538574
2019-05-07T03:31:56.077Z,89.221191
2019-05-07T03:32:56.035Z,88.391113
2019-05-07T03:33:55.804Z,87.390137
2019-05-07T03:34:57.597Z,87.072754
2019-05-07T03:35:56.427Z,86.968994
2019-05-07T03:36:56.739Z,86.968994
2019-05-07T03:37:54.723Z,87.280273
2019-05-07T03:38:53.805Z,87.634277
2019-05-07T03:39:05.174Z,87.738037
2019-05-07T03:39:53.894Z,88.05542
2019-05-07T03:40:05.411Z,88.05542
2019-05-07T03:41:04.693Z,88.366699
2019-05-07T03:42:03.953Z,88.470459
2019-05-07T03:43:15.101Z,88.366699
2019-05-07T03:44:14.406Z,88.470459
2019-05-07T03:45:13.908Z,88.470459
2019-05-07T03:46:24.797Z,88.409424
2019-05-07T03:47:25.001Z,88.195801
2019-05-07T03:48:24.311Z,87.988281
2019-05-07T03:49:23.568Z,87.677002
2019-05-07T03:49:35.411Z,87.677002
2019-05-07T03:50:34.659Z,87.255859
2019-05-07T03:51:33.890Z,86.84082
2019-05-07T03:52:45.072Z,86.633301
2019-05-07T03:53:44.451Z,86.529541
2019-05-07T03:54:43.705Z,86.315918
2019-05-07T03:55:54.769Z,86.004639
2019-05-07T03:56:54.017Z,85.943604
2019-05-07T03:57:54.282Z,86.212158
2019-05-07T03:58:53.540Z,86.315918
2019-05-07T03:59:05.391Z,86.425781
2019-05-07T04:00:04.648Z,87.091064
2019-05-07T04:01:04.624Z,86.883545
2019-05-07T04:02:15.046Z,87.298584
2019-05-07T04:03:18.485Z,87.927246
2019-05-07T04:04:13.618Z,88.970947
2019-05-07T04:05:24.728Z,89.971924
2019-05-07T04:06:24.096Z,89.868164
2019-05-07T04:07:23.586Z,89.660645
2019-05-07T04:08:24.042Z,89.593506
2019-05-07T04:09:34.674Z,89.282227
2019-05-07T04:10:34.135Z,89.178467
2019-05-07T04:11:45.012Z,89.282227
2019-05-07T04:12:44.580Z,89.593506
2019-05-07T04:13:44.223Z,90.118408
2019-05-07T04:13:55.359Z,90.222168
2019-05-07T04:14:54.581Z,90.74707
2019-05-07T04:15:54.813Z,91.265869
2019-05-07T04:17:04.693Z,91.790771
2019-05-07T04:17:43.553Z,92.059326
2019-05-07T04:17:55.430Z,92.059326
2019-05-07T04:18:54.714Z,92.266846
2019-05-07T04:19:53.929Z,92.370605
2019-05-07T04:21:04.982Z,92.437744
2019-05-07T04:22:04.520Z,92.541504
2019-05-07T04:22:53.855Z,92.437744
2019-05-07T04:25:05.059Z,91.662598
2019-05-07T04:26:04.737Z,91.558838
2019-05-07T04:27:03.876Z,91.558838
2019-05-07T04:28:14.676Z,91.558838
2019-05-07T04:29:13.978Z,91.558838
2019-05-07T04:30:25.108Z,91.619873
2019-05-07T04:31:24.440Z,91.619873
2019-05-07T04:32:23.749Z,91.412354
2019-05-07T04:33:34.881Z,91.204834
2019-05-07T04:34:34.152Z,91.204834
2019-05-07T04:35:33.692Z,91.204834
2019-05-07T04:35:45.307Z,91.204834
2019-05-07T04:36:44.596Z,91.308594
2019-05-07T04:37:43.834Z,91.412354
2019-05-07T04:38:44.298Z,91.204834
2019-05-07T04:39:43.389Z,89.892578
2019-05-07T04:39:55.228Z,89.575195
2019-05-07T04:40:54.563Z,88.641357
2019-05-07T04:41:53.850Z,88.262939
2019-05-07T04:43:05.022Z,87.738037
2019-05-07T04:44:04.323Z,87.530518
2019-05-07T04:45:04.364Z,87.115479
2019-05-07T04:46:14.757Z,86.907959
2019-05-07T04:47:31.590Z,87.115479
2019-05-07T04:48:14.456Z,88.15918
2019-05-07T04:49:13.495Z,88.989258
2019-05-07T04:49:25.329Z,89.099121
2019-05-07T04:50:37.603Z,89.4104
2019-05-07T04:51:24.830Z,89.678955
2019-05-07T04:52:24.097Z,89.782715
2019-05-07T04:53:23.892Z,89.367676
2019-05-07T04:53:35.348Z,89.263916
2019-05-07T04:54:34.597Z,88.745117
2019-05-07T04:55:33.872Z,88.323975
2019-05-07T04:56:44.973Z,88.427734
2019-05-07T04:57:44.265Z,88.494873
2019-05-07T04:58:44.489Z,88.494873
2019-05-07T04:59:43.859Z,88.806152
2019-05-07T05:00:55.019Z,89.538574
2019-05-07T05:01:54.295Z,89.849854
2019-05-07T05:02:53.558Z,89.953613
2019-05-07T05:03:05.410Z,90.057373
2019-05-07T05:04:21.870Z,90.161133
2019-05-07T05:05:05.015Z,90.435791
2019-05-07T05:06:04.316Z,90.539551
2019-05-07T05:07:03.548Z,90.643311
2019-05-07T05:07:15.394Z,90.643311
2019-05-07T05:08:14.633Z,90.85083
2019-05-07T05:09:13.896Z,91.223145
2019-05-07T05:10:13.539Z,91.534424
2019-05-07T05:10:25.195Z,91.534424
2019-05-07T05:11:24.453Z,91.748047
2019-05-07T05:12:23.716Z,91.851807
2019-05-07T05:13:24.014Z,91.912842
2019-05-07T05:14:35.057Z,91.912842
2019-05-07T05:15:34.375Z,91.912842
2019-05-07T05:16:33.663Z,91.870117
2019-05-07T05:17:49.940Z,91.870117
2019-05-07T05:18:43.963Z,91.766357
2019-05-07T05:19:55.105Z,91.766357
2019-05-07T05:20:54.381Z,91.723633
2019-05-07T05:21:53.604Z,91.827393
2019-05-07T05:23:04.704Z,91.931152
2019-05-07T05:24:03.959Z,91.992188
2019-05-07T05:25:03.327Z,92.199707
2019-05-07T05:25:15.165Z,92.199707
2019-05-07T05:26:14.442Z,92.260742
2019-05-07T05:27:13.685Z,92.321777
2019-05-07T05:28:24.766Z,92.425537
2019-05-07T05:29:24.010Z,92.382812
2019-05-07T05:30:35.282Z,92.590332
2019-05-07T05:31:34.551Z,92.76123
2019-05-07T05:32:33.867Z,92.76123
2019-05-07T05:33:44.958Z,92.510986
2019-05-07T05:34:44.279Z,92.156982
2019-05-07T05:35:43.681Z,91.741943
2019-05-07T05:36:54.788Z,91.18042
2019-05-07T05:37:54.051Z,90.930176
2019-05-07T05:38:53.334Z,89.996338
2019-05-07T05:39:05.180Z,89.892578
2019-05-07T05:40:08.624Z,89.233398
2019-05-07T05:41:03.752Z,88.818359
2019-05-07T05:42:14.824Z,87.469482
2019-05-07T05:43:14.064Z,87.268066
2019-05-07T05:44:13.398Z,87.121582
2019-05-07T05:44:25.252Z,87.121582
2019-05-07T05:45:24.533Z,87.329102
2019-05-07T05:46:23.899Z,87.225342
2019-05-07T05:47:35.022Z,87.536621
2019-05-07T05:48:23.422Z,87.432861
2019-05-07T05:48:35.275Z,87.329102
2019-05-07T05:49:34.538Z,87.121582
2019-05-07T05:50:33.946Z,87.329102
2019-05-07T05:51:45.043Z,87.017822
2019-05-07T05:52:44.298Z,87.329102
2019-05-07T05:53:43.555Z,87.432861
2019-05-07T05:53:55.387Z,87.536621
2019-05-07T05:54:54.674Z,87.493896
2019-05-07T05:55:53.960Z,87.597656
2019-05-07T05:57:05.164Z,87.390137
2019-05-07T05:58:04.421Z,86.773682
2019-05-07T05:59:04.676Z,86.254883
2019-05-07T06:00:04.919Z,86.151123
2019-05-07T06:01:04.294Z,86.315918
2019-05-07T06:02:06.452Z,86.419678
2019-05-07T06:02:15.392Z,86.315918
2019-05-07T06:03:03.822Z,86.419678
2019-05-07T06:04:14.916Z,85.803223
2019-05-07T06:05:14.165Z,86.108398
2019-05-07T06:06:13.421Z,86.938477
2019-05-07T06:06:25.271Z,87.042236
2019-05-07T06:07:24.538Z,86.938477
2019-05-07T06:08:24.052Z,86.730957
2019-05-07T06:09:34.888Z,86.834717
2019-05-07T06:10:34.182Z,87.310791
2019-05-07T06:11:33.600Z,87.207031
2019-05-07T06:12:44.686Z,87.207031
2019-05-07T06:13:43.976Z,87.310791
2019-05-07T06:14:55.163Z,87.62207
2019-05-07T06:15:54.400Z,87.82959
2019-05-07T06:16:53.618Z,88.037109
2019-05-07T06:18:17.852Z,87.62207
2019-05-07T06:19:03.905Z,87.414551
2019-05-07T06:20:14.963Z,86.999512
2019-05-07T06:21:14.244Z,86.547852
2019-05-07T06:22:16.527Z,86.651611
2019-05-07T06:22:25.320Z,86.755371
2019-05-07T06:23:24.575Z,87.579346
2019-05-07T06:24:23.794Z,87.786865
2019-05-07T06:25:34.951Z,87.994385
2019-05-07T06:26:34.215Z,87.994385
2019-05-07T06:27:33.478Z,87.475586
2019-05-07T06:27:45.310Z,87.371826
2019-05-07T06:28:33.676Z,86.859131
2019-05-07T06:29:44.809Z,86.236572
2019-05-07T06:30:44.029Z,86.132812
2019-05-07T06:32:43.444Z,85.827637
2019-05-07T06:33:43.722Z,85.827637
2019-05-07T06:34:54.803Z,85.308838
2019-05-07T06:35:54.031Z,85.101318
2019-05-07T06:37:05.108Z,84.545898
2019-05-07T06:38:04.341Z,83.721924
2019-05-07T06:39:03.574Z,83.825684
2019-05-07T06:39:15.417Z,83.929443
2019-05-07T06:40:14.620Z,82.48291
2019-05-07T06:41:13.829Z,83.166504
2019-05-07T06:42:14.052Z,82.751465
2019-05-07T06:43:25.118Z,82.855225
2019-05-07T06:44:24.396Z,83.374023
2019-05-07T06:45:23.638Z,83.477783
2019-05-07T06:46:34.783Z,82.647705
2019-05-07T06:47:34.004Z,83.062744
2019-05-07T06:48:41.629Z,82.647705
2019-05-07T06:49:33.447Z,81.103516
2019-05-07T06:49:45.292Z,80.999756
2019-05-07T06:50:44.518Z,80.999756
2019-05-07T06:51:43.728Z,81.103516
2019-05-07T06:52:54.782Z,81.787109
2019-05-07T06:53:54.071Z,81.170654
2019-05-07T06:54:53.382Z,81.268311
2019-05-07T06:55:05.185Z,81.37207
2019-05-07T06:56:04.422Z,81.994629
2019-05-07T06:57:03.644Z,80.755615
2019-05-07T06:58:14.698Z,80.13916
2019-05-07T06:59:13.944Z,80.0354
2019-05-07T07:00:25.089Z,80.13916
2019-05-07T07:01:24.318Z,79.827881
2019-05-07T07:02:23.499Z,82.263184
2019-05-07T07:02:35.351Z,81.439209
2019-05-07T07:03:34.575Z,79.79126
2019-05-07T07:04:33.790Z,79.071045
2019-05-07T07:05:44.906Z,78.656006
2019-05-07T07:06:44.145Z,78.552246
2019-05-07T07:07:43.339Z,77.832031
2019-05-07T07:07:55.189Z,78.240967
2019-05-07T07:08:54.465Z,80.303955
2019-05-07T07:09:53.774Z,79.79126
2019-05-07T07:11:05.048Z,80.163574
2019-05-07T07:12:04.261Z,79.23584
2019-05-07T07:13:04.470Z,79.754639
2019-05-07T07:14:03.696Z,79.754639
2019-05-07T07:15:14.788Z,81.298828
2019-05-07T07:16:14.043Z,80.889893
2019-05-07T07:17:25.121Z,80.059814
2019-05-07T07:18:24.343Z,81.195068
2019-05-07T07:19:24.572Z,81.469727
2019-05-07T07:20:23.808Z,81.671143
2019-05-07T07:21:34.950Z,82.189941
2019-05-07T07:22:34.150Z,81.262207
2019-05-07T07:23:33.368Z,82.049561
2019-05-07T07:23:45.210Z,82.562256
2019-05-07T07:24:44.464Z,83.59375
2019-05-07T07:25:44.676Z,76.898193
2019-05-07T07:26:44.007Z,78.717041
2019-05-07T07:27:44.214Z,78.302002
2019-05-07T07:28:43.426Z,76.141357
2019-05-07T07:28:55.274Z,76.043701
2019-05-07T07:29:54.480Z,76.861572
2019-05-07T07:30:53.712Z,79.333496
2019-05-07T07:32:04.789Z,76.556396
2019-05-07T07:33:04.002Z,74.804688
2019-05-07T07:34:15.066Z,74.603271
2019-05-07T07:35:14.295Z,73.468018
2019-05-07T07:36:13.558Z,75.012207
2019-05-07T07:36:25.398Z,75.939941
2019-05-07T07:37:24.585Z,75.939941
2019-05-07T07:38:23.789Z,73.883057
2019-05-07T07:39:34.846Z,75.836182
2019-05-07T07:40:34.059Z,77.893066
2019-05-07T07:41:33.315Z,77.960205
2019-05-07T07:41:45.157Z,77.23999
2019-05-07T07:42:44.389Z,77.34375
2019-05-07T07:43:44.593Z,76.312256
2019-05-07T07:44:43.824Z,74.224854
2019-05-07T07:45:55.141Z,74.017334
2019-05-07T07:46:54.755Z,73.0896
2019-05-07T07:47:44.198Z,75.354004
2019-05-07T07:48:44.131Z,76.586914
2019-05-07T07:49:44.474Z,76.654053
2019-05-07T07:50:43.692Z,73.571777
2019-05-07T07:51:54.742Z,70.178223
2019-05-07T07:52:54.093Z,72.851562
2019-05-07T07:54:05.130Z,74.291992
2019-05-07T07:55:04.350Z,74.291992
2019-05-07T07:55:53.696Z,72.10083
2019-05-07T07:56:56.437Z,73.22998
2019-05-07T07:58:05.145Z,73.535156
2019-05-07T07:59:04.349Z,73.22998
2019-05-07T08:00:03.583Z,72.821045
2019-05-07T08:00:15.418Z,71.588135
2019-05-07T08:01:14.626Z,71.142578
2019-05-07T08:02:13.847Z,74.224854
2019-05-07T08:03:24.987Z,73.095703
2019-05-07T08:04:24.207Z,71.862793
2019-05-07T08:05:23.453Z,71.209717
2019-05-07T08:05:35.289Z,71.624756
2019-05-07T08:06:34.498Z,73.675537
2019-05-07T08:07:33.714Z,70.391846
2019-05-07T08:08:44.871Z,71.209717
2019-05-07T08:09:44.083Z,67.004395
2019-05-07T08:10:43.314Z,69.055176
2019-05-07T08:10:55.158Z,69.87915
2019-05-07T08:11:54.546Z,73.364258
2019-05-07T08:12:54.100Z,69.055176
2019-05-07T08:13:53.435Z,70.874023
2019-05-07T08:14:05.273Z,71.588135
2019-05-07T08:15:16.611Z,70.153809
2019-05-07T08:16:03.729Z,66.870117
2019-05-07T08:17:15.131Z,66.973877
2019-05-07T08:18:14.380Z,67.077637
2019-05-07T08:19:21.464Z,67.791748
2019-05-07T08:19:25.427Z,66.461182
2019-05-07T08:20:24.694Z,68.54248
2019-05-07T08:21:23.909Z,70.257568
2019-05-07T08:22:34.971Z,73.022461
2019-05-07T08:23:34.197Z,69.433594
2019-05-07T08:24:33.417Z,67.895508
2019-05-07T08:24:45.249Z,67.181396
2019-05-07T08:25:44.611Z,63.793945
2019-05-07T08:26:43.862Z,65.258789
2019-05-07T08:27:57.940Z,65.155029
2019-05-07T08:28:55.060Z,68.95752
2019-05-07T08:29:54.391Z,67.138672
2019-05-07T08:30:53.609Z,67.108154
2019-05-07T08:32:04.663Z,66.595459
2019-05-07T08:33:03.881Z,68.029785
2019-05-07T08:34:14.969Z,67.51709
2019-05-07T08:35:14.383Z,66.082764
2019-05-07T08:36:14.701Z,68.103027
2019-05-07T08:36:25.249Z,69.128418
2019-05-07T08:37:24.578Z,67.181396
2019-05-07T08:38:23.671Z,66.052246
2019-05-07T08:39:34.717Z,66.973877
2019-05-07T08:40:33.954Z,64.202881
2019-05-07T08:41:45.016Z,62.976074
2019-05-07T08:42:45.223Z,63.928223
2019-05-07T08:43:44.422Z,64.233398
2019-05-07T08:44:44.627Z,64.746094
2019-05-07T08:45:43.837Z,66.796875
2019-05-07T08:46:54.890Z,66.766357
2019-05-07T08:47:54.112Z,67.486572
2019-05-07T08:48:53.344Z,63.28125
2019-05-07T08:49:05.212Z,64.001465
2019-05-07T08:50:04.421Z,64.819336
2019-05-07T08:51:04.637Z,66.430664
2019-05-07T08:52:04.034Z,66.8396
2019-05-07T08:53:04.183Z,68.890381
2019-05-07T08:54:15.126Z,68.243408
2019-05-07T08:55:14.340Z,65.374756
2019-05-07T08:56:13.570Z,64.245605
2019-05-07T08:56:25.407Z,66.192627
2019-05-07T08:57:13.777Z,64.556885
2019-05-07T08:58:24.951Z,67.218018
2019-05-07T08:59:24.149Z,63.092041
2019-05-07T09:00:25.034Z,65.856934
2019-05-07T09:01:24.783Z,60.632324
2019-05-07T09:02:24.077Z,58.660889
2019-05-07T09:03:35.108Z,60.809326
2019-05-07T09:04:34.317Z,61.523438
2019-05-07T09:05:33.529Z,56.097412
2019-05-07T09:05:45.363Z,56.610107
2019-05-07T09:06:44.599Z,61.218262
2019-05-07T09:07:44.110Z,60.400391
2019-05-07T09:08:55.082Z,59.918213
2019-05-07T09:09:54.336Z,61.322021
2019-05-07T09:10:53.644Z,61.834717
2019-05-07T09:11:53.832Z,60.913086
2019-05-07T09:13:04.967Z,56.713867
2019-05-07T09:14:04.370Z,57.531738
2019-05-07T09:15:04.564Z,57.226562
2019-05-07T09:16:04.787Z,60.369873
2019-05-07T09:17:04.110Z,60.168457
2019-05-07T09:18:03.459Z,56.561279
2019-05-07T09:18:15.308Z,57.788086
2019-05-07T09:19:14.513Z,59.729004
2019-05-07T09:20:14.713Z,54.846191
2019-05-07T09:21:13.969Z,57.403564
2019-05-07T09:22:24.989Z,61.090088
2019-05-07T09:23:24.207Z,58.94165
2019-05-07T09:24:23.543Z,60.986328
2019-05-07T09:24:35.393Z,61.499023
2019-05-07T09:25:23.744Z,61.804199
2019-05-07T09:26:34.795Z,58.734131
2019-05-07T09:27:34.006Z,58.526611
2019-05-07T09:28:45.129Z,60.241699
2019-05-07T09:29:44.334Z,57.788086
2019-05-07T09:30:43.533Z,56.866455
2019-05-07T09:30:55.380Z,56.970215
2019-05-07T09:31:54.590Z,57.299805
2019-05-07T09:32:53.815Z,57.299805
2019-05-07T09:34:04.901Z,58.453369
2019-05-07T09:35:04.125Z,59.991455
2019-05-07T09:36:03.356Z,56.610107
2019-05-07T09:36:15.198Z,56.506348
2019-05-07T09:37:14.407Z,54.35791
2019-05-07T09:38:13.604Z,56.506348
2019-05-07T09:39:24.625Z,54.766846
2019-05-07T09:40:23.873Z,53.869629
2019-05-07T09:41:34.909Z,58.172607
2019-05-07T09:42:34.109Z,62.579346
2019-05-07T09:43:33.322Z,60.247803
2019-05-07T09:43:45.160Z,60.559082
2019-05-07T09:44:44.414Z,56.970215
2019-05-07T09:45:43.612Z,59.124756
2019-05-07T09:46:54.642Z,58.740234
2019-05-07T09:47:53.942Z,59.533691
2019-05-07T09:49:04.996Z,61.480713
2019-05-07T09:50:07.702Z,62.579346
2019-05-07T09:51:03.471Z,63.061523
2019-05-07T09:51:15.318Z,63.061523
2019-05-07T09:52:14.516Z,60.601807
2019-05-07T09:53:13.725Z,60.882568
2019-05-07T09:54:24.772Z,60.266113
2019-05-07T09:55:24.960Z,60.345459
2019-05-07T09:56:24.215Z,63.482666
2019-05-07T09:57:30.360Z,59.295654
2019-05-07T09:57:35.248Z,58.374023
2019-05-07T09:58:38.286Z,56.329346
2019-05-07T09:59:33.638Z,58.477783
2019-05-07T10:00:44.744Z,59.088135
2019-05-07T10:01:43.938Z,57.250977
2019-05-07T10:02:56.670Z,56.329346
2019-05-07T10:03:54.174Z,64.099121
2019-05-07T10:04:53.377Z,64.709473
2019-05-07T10:05:05.210Z,64.404297
2019-05-07T10:06:04.479Z,56.762695
2019-05-07T10:07:03.659Z,59.014893
2019-05-07T10:08:14.716Z,60.03418
2019-05-07T10:09:13.923Z,57.067871
2019-05-07T10:10:24.979Z,61.981201
2019-05-07T10:11:24.308Z,60.009766
2019-05-07T10:12:23.475Z,59.161377
2019-05-07T10:12:35.321Z,58.14209
2019-05-07T10:13:34.498Z,56.506348
2019-05-07T10:14:33.698Z,58.24585
2019-05-07T10:15:44.775Z,59.338379
2019-05-07T10:16:45.065Z,63.293457
2019-05-07T10:17:33.413Z,60.125732
2019-05-07T10:17:45.248Z,59.796143
2019-05-07T10:18:45.001Z,60.81543
2019-05-07T10:19:44.258Z,57.623291
2019-05-07T10:20:44.507Z,57.727051
2019-05-07T10:21:43.788Z,54.870605
2019-05-07T10:22:54.872Z,56.604004
2019-05-07T10:23:54.084Z,57.623291
2019-05-07T10:25:05.127Z,57.623291
2019-05-07T10:26:04.323Z,54.052734
2019-05-07T10:27:03.986Z,51.348877
2019-05-07T10:28:15.056Z,54.541016
2019-05-07T10:29:14.242Z,54.541016
2019-05-07T10:30:13.446Z,52.929688
2019-05-07T10:30:25.290Z,52.215576
2019-05-07T10:31:13.640Z,52.850342
2019-05-07T10:32:24.807Z,55.206299
2019-05-07T10:33:24.031Z,52.441406
2019-05-07T10:34:35.031Z,51.9104
2019-05-07T10:35:34.235Z,52.600098
2019-05-07T10:36:33.427Z,53.106689
2019-05-07T10:36:45.270Z,52.905273
2019-05-07T10:37:44.494Z,49.127197
2019-05-07T10:38:44.093Z,50.756836